sensor_id;sensor_type;location;lat;lon;timestamp;pressure;altitude;pressure_sealevel;temperature;humidity
57094;BME280;42970;50.996;3.706;2023-01-28T00:00:31;77016.00;;;-146.65;89.51
57094;BME280;42970;50.996;3.706;2023-01-28T00:02:56;77022.06;;;-146.65;89.66
57094;BME280;42970;50.996;3.706;2023-01-28T00:05:22;77020.03;;;-146.65;89.84
57094;BME280;42970;50.996;3.706;2023-01-28T00:07:48;77022.06;;;-146.65;89.43
57094;BME280;42970;50.996;3.706;2023-01-28T00:10:14;77028.13;;;-146.65;89.37
57094;BME280;42970;50.996;3.706;2023-01-28T00:12:39;77028.13;;;-146.65;88.76
57094;BME280;42970;50.996;3.706;2023-01-28T00:15:05;77009.94;;;-146.65;88.30
57094;BME280;42970;50.996;3.706;2023-01-28T00:17:30;77022.06;;;-146.65;88.39
57094;BME280;42970;50.996;3.706;2023-01-28T00:19:55;77030.13;;;-146.65;88.27
57094;BME280;42970;50.996;3.706;2023-01-28T00:22:21;77030.13;;;-146.65;88.58
57094;BME280;42970;50.996;3.706;2023-01-28T00:24:48;77030.13;;;-146.65;88.82
57094;BME280;42970;50.996;3.706;2023-01-28T00:27:13;77030.13;;;-146.65;88.78
57094;BME280;42970;50.996;3.706;2023-01-28T00:29:39;77034.16;;;-146.65;88.85
57094;BME280;42970;50.996;3.706;2023-01-28T00:32:04;77022.06;;;-146.65;88.98
57094;BME280;42970;50.996;3.706;2023-01-28T00:34:29;77026.09;;;-146.65;89.18
57094;BME280;42970;50.996;3.706;2023-01-28T00:36:55;77026.09;;;-146.65;89.06
57094;BME280;42970;50.996;3.706;2023-01-28T00:39:31;77036.19;;;-146.65;89.54
57094;BME280;42970;50.996;3.706;2023-01-28T00:41:57;77034.16;;;-146.65;88.94
57094;BME280;42970;50.996;3.706;2023-01-28T00:44:28;77042.25;;;-146.65;89.27
57094;BME280;42970;50.996;3.706;2023-01-28T00:46:53;77040.22;;;-146.65;89.21
57094;BME280;42970;50.996;3.706;2023-01-28T00:49:18;77038.19;;;-146.65;88.78
57094;BME280;42970;50.996;3.706;2023-01-28T00:51:44;77046.28;;;-146.65;89.31
57094;BME280;42970;50.996;3.706;2023-01-28T00:54:19;77042.25;;;-146.65;89.30
57094;BME280;42970;50.996;3.706;2023-01-28T00:57:05;77046.28;;;-146.65;89.38
57094;BME280;42970;50.996;3.706;2023-01-28T01:02:20;77042.25;;;-146.65;89.15
57094;BME280;42970;50.996;3.706;2023-01-28T01:04:46;77046.28;;;-146.65;89.03
57094;BME280;42970;50.996;3.706;2023-01-28T01:07:22;77040.22;;;-146.65;88.84
57094;BME280;42970;50.996;3.706;2023-01-28T01:10:03;77038.19;;;-146.65;88.74
57094;BME280;42970;50.996;3.706;2023-01-28T01:12:29;77052.31;;;-146.65;88.54
57094;BME280;42970;50.996;3.706;2023-01-28T01:14:55;77066.44;;;-146.65;88.33
57094;BME280;42970;50.996;3.706;2023-01-28T01:17:36;77052.31;;;-146.65;88.70
57094;BME280;42970;50.996;3.706;2023-01-28T01:20:07;77052.31;;;-146.65;89.10
57094;BME280;42970;50.996;3.706;2023-01-28T01:22:35;77050.31;;;-146.65;88.67
57094;BME280;42970;50.996;3.706;2023-01-28T01:25:00;77058.38;;;-146.65;88.97
57094;BME280;42970;50.996;3.706;2023-01-28T01:27:26;77058.38;;;-146.65;89.02
57094;BME280;42970;50.996;3.706;2023-01-28T01:29:54;77058.38;;;-146.65;88.75
57094;BME280;42970;50.996;3.706;2023-01-28T01:32:28;77064.44;;;-146.65;88.70
57094;BME280;42970;50.996;3.706;2023-01-28T01:34:54;77066.44;;;-146.65;87.95
57094;BME280;42970;50.996;3.706;2023-01-28T01:37:19;77058.38;;;-146.65;88.48
57094;BME280;42970;50.996;3.706;2023-01-28T01:39:45;77068.47;;;-146.65;88.46
57094;BME280;42970;50.996;3.706;2023-01-28T01:42:12;77074.53;;;-146.65;88.35
57094;BME280;42970;50.996;3.706;2023-01-28T01:47:23;77074.53;;;-146.65;87.87
57094;BME280;42970;50.996;3.706;2023-01-28T01:49:49;77076.53;;;-146.65;88.23
57094;BME280;42970;50.996;3.706;2023-01-28T01:52:16;77078.56;;;-146.65;88.06
57094;BME280;42970;50.996;3.706;2023-01-28T01:54:43;77074.53;;;-146.65;87.75
57094;BME280;42970;50.996;3.706;2023-01-28T01:57:11;77074.53;;;-146.65;87.49
57094;BME280;42970;50.996;3.706;2023-01-28T01:59:38;77086.63;;;-146.65;87.62
57094;BME280;42970;50.996;3.706;2023-01-28T02:02:06;77088.66;;;-146.65;87.84
57094;BME280;42970;50.996;3.706;2023-01-28T02:04:34;77086.63;;;-146.65;87.63
57094;BME280;42970;50.996;3.706;2023-01-28T02:07:02;77090.66;;;-146.65;87.70
57094;BME280;42970;50.996;3.706;2023-01-28T02:09:28;77090.66;;;-146.65;87.77
57094;BME280;42970;50.996;3.706;2023-01-28T02:11:55;77092.69;;;-146.65;87.41
57094;BME280;42970;50.996;3.706;2023-01-28T02:14:23;77078.56;;;-146.65;87.56
57094;BME280;42970;50.996;3.706;2023-01-28T02:16:50;77094.69;;;-146.65;87.04
57094;BME280;42970;50.996;3.706;2023-01-28T02:19:15;77090.66;;;-146.65;87.14
57094;BME280;42970;50.996;3.706;2023-01-28T02:22:05;77094.69;;;-146.65;87.15
57094;BME280;42970;50.996;3.706;2023-01-28T02:24:42;77094.69;;;-146.65;87.12
57094;BME280;42970;50.996;3.706;2023-01-28T02:27:19;77100.75;;;-146.65;86.21
57094;BME280;42970;50.996;3.706;2023-01-28T02:34:56;77096.72;;;-146.65;86.27
57094;BME280;42970;50.996;3.706;2023-01-28T02:37:24;77098.72;;;-146.65;86.61
57094;BME280;42970;50.996;3.706;2023-01-28T02:39:56;77092.69;;;-146.65;85.93
57094;BME280;42970;50.996;3.706;2023-01-28T02:42:24;77096.72;;;-146.65;85.61
57094;BME280;42970;50.996;3.706;2023-01-28T02:44:51;77098.72;;;-146.65;86.30
57094;BME280;42970;50.996;3.706;2023-01-28T02:47:16;77094.69;;;-146.65;86.62
57094;BME280;42970;50.996;3.706;2023-01-28T02:50:01;77092.69;;;-146.65;86.00
57094;BME280;42970;50.996;3.706;2023-01-28T02:52:49;77092.69;;;-146.65;85.71
57094;BME280;42970;50.996;3.706;2023-01-28T03:05:29;77098.72;;;-146.65;82.62
57094;BME280;42970;50.996;3.706;2023-01-28T03:07:56;77100.75;;;-146.65;82.59
57094;BME280;42970;50.996;3.706;2023-01-28T03:10:22;77098.72;;;-146.65;83.06
57094;BME280;42970;50.996;3.706;2023-01-28T03:12:52;77108.81;;;-146.65;83.88
57094;BME280;42970;50.996;3.706;2023-01-28T03:15:37;77094.69;;;-146.65;84.11
57094;BME280;42970;50.996;3.706;2023-01-28T03:18:24;77108.81;;;-146.65;84.40
57094;BME280;42970;50.996;3.706;2023-01-28T03:21:11;77110.84;;;-146.65;84.01
57094;BME280;42970;50.996;3.706;2023-01-28T03:26:50;77118.91;;;-146.65;84.34
57094;BME280;42970;50.996;3.706;2023-01-28T03:29:37;77118.91;;;-146.65;84.18
57094;BME280;42970;50.996;3.706;2023-01-28T03:32:23;77126.97;;;-146.65;84.11
57094;BME280;42970;50.996;3.706;2023-01-28T03:35:07;77126.97;;;-146.65;84.05
57094;BME280;42970;50.996;3.706;2023-01-28T03:37:53;77131.03;;;-146.65;84.45
57094;BME280;42970;50.996;3.706;2023-01-28T03:40:18;77135.06;;;-146.65;84.12
57094;BME280;42970;50.996;3.706;2023-01-28T03:42:44;77131.03;;;-146.65;84.81
57094;BME280;42970;50.996;3.706;2023-01-28T03:45:09;77135.06;;;-146.65;85.47
57094;BME280;42970;50.996;3.706;2023-01-28T03:47:35;77137.06;;;-146.65;85.63
57094;BME280;42970;50.996;3.706;2023-01-28T03:50:00;77147.16;;;-146.65;86.33
57094;BME280;42970;50.996;3.706;2023-01-28T03:52:29;77145.16;;;-146.65;86.21
57094;BME280;42970;50.996;3.706;2023-01-28T03:54:55;77153.22;;;-146.65;85.26
57094;BME280;42970;50.996;3.706;2023-01-28T03:57:21;77147.16;;;-146.65;85.01
57094;BME280;42970;50.996;3.706;2023-01-28T03:59:47;77151.19;;;-146.65;85.20
57094;BME280;42970;50.996;3.706;2023-01-28T04:02:14;77147.16;;;-146.65;83.15
57094;BME280;42970;50.996;3.706;2023-01-28T04:04:39;77141.09;;;-146.65;84.31
57094;BME280;42970;50.996;3.706;2023-01-28T04:07:06;77155.22;;;-146.65;85.22
57094;BME280;42970;50.996;3.706;2023-01-28T04:09:35;77167.34;;;-146.65;85.25
57094;BME280;42970;50.996;3.706;2023-01-28T04:12:01;77173.41;;;-146.65;85.22
57094;BME280;42970;50.996;3.706;2023-01-28T04:14:26;77169.34;;;-146.65;85.74
57094;BME280;42970;50.996;3.706;2023-01-28T04:16:52;77161.28;;;-146.65;85.30
57094;BME280;42970;50.996;3.706;2023-01-28T04:19:19;77161.28;;;-146.65;84.30
57094;BME280;42970;50.996;3.706;2023-01-28T04:21:44;77157.25;;;-146.65;84.42
57094;BME280;42970;50.996;3.706;2023-01-28T04:24:09;77161.28;;;-146.65;83.92
57094;BME280;42970;50.996;3.706;2023-01-28T04:26:35;77155.22;;;-146.65;83.61
57094;BME280;42970;50.996;3.706;2023-01-28T04:29:00;77155.22;;;-146.65;82.14
57094;BME280;42970;50.996;3.706;2023-01-28T04:31:25;77169.34;;;-146.65;79.37
57094;BME280;42970;50.996;3.706;2023-01-28T04:33:51;77165.31;;;-146.65;78.36
57094;BME280;42970;50.996;3.706;2023-01-28T04:36:16;77171.38;;;-146.65;78.78
57094;BME280;42970;50.996;3.706;2023-01-28T04:38:41;77169.34;;;-146.65;79.53
57094;BME280;42970;50.996;3.706;2023-01-28T04:41:07;77167.34;;;-146.65;79.90
57094;BME280;42970;50.996;3.706;2023-01-28T04:43:32;77167.34;;;-146.65;80.03
57094;BME280;42970;50.996;3.706;2023-01-28T04:45:57;77171.38;;;-146.65;80.71
57094;BME280;42970;50.996;3.706;2023-01-28T04:48:23;77165.31;;;-146.65;80.14
57094;BME280;42970;50.996;3.706;2023-01-28T04:50:48;77167.34;;;-146.65;79.21
57094;BME280;42970;50.996;3.706;2023-01-28T04:53:13;77161.28;;;-146.65;79.50
57094;BME280;42970;50.996;3.706;2023-01-28T04:55:39;77167.34;;;-146.65;79.47
57094;BME280;42970;50.996;3.706;2023-01-28T04:58:04;77171.38;;;-146.65;78.77
57094;BME280;42970;50.996;3.706;2023-01-28T05:00:29;77173.41;;;-146.65;78.47
57094;BME280;42970;50.996;3.706;2023-01-28T05:02:55;77169.34;;;-146.65;78.33
57094;BME280;42970;50.996;3.706;2023-01-28T05:05:20;77171.38;;;-146.65;77.58
57094;BME280;42970;50.996;3.706;2023-01-28T05:07:51;77171.38;;;-146.65;77.47
57094;BME280;42970;50.996;3.706;2023-01-28T05:10:17;77157.25;;;-146.65;77.95
57094;BME280;42970;50.996;3.706;2023-01-28T05:12:43;77155.22;;;-146.65;78.59
57094;BME280;42970;50.996;3.706;2023-01-28T05:15:09;77173.41;;;-146.65;78.59
57094;BME280;42970;50.996;3.706;2023-01-28T05:17:34;77175.41;;;-146.65;79.00
57094;BME280;42970;50.996;3.706;2023-01-28T05:19:59;77167.34;;;-146.65;79.07
57094;BME280;42970;50.996;3.706;2023-01-28T05:22:24;77173.41;;;-146.65;78.69
57094;BME280;42970;50.996;3.706;2023-01-28T05:24:50;77183.47;;;-146.65;78.66
57094;BME280;42970;50.996;3.706;2023-01-28T05:27:15;77175.41;;;-146.65;78.61
57094;BME280;42970;50.996;3.706;2023-01-28T05:29:40;77171.38;;;-146.65;78.50
57094;BME280;42970;50.996;3.706;2023-01-28T05:32:06;77179.44;;;-146.65;78.22
57094;BME280;42970;50.996;3.706;2023-01-28T05:34:31;77179.44;;;-146.65;78.65
57094;BME280;42970;50.996;3.706;2023-01-28T05:36:56;77177.44;;;-146.65;78.69
57094;BME280;42970;50.996;3.706;2023-01-28T05:39:22;77181.47;;;-146.65;79.03
57094;BME280;42970;50.996;3.706;2023-01-28T05:41:47;77177.44;;;-146.65;79.05
57094;BME280;42970;50.996;3.706;2023-01-28T05:44:12;77183.47;;;-146.65;79.48
57094;BME280;42970;50.996;3.706;2023-01-28T05:46:37;77189.53;;;-146.65;79.69
57094;BME280;42970;50.996;3.706;2023-01-28T05:49:05;77171.38;;;-146.65;79.37
57094;BME280;42970;50.996;3.706;2023-01-28T05:51:32;77171.38;;;-146.65;79.65
57094;BME280;42970;50.996;3.706;2023-01-28T05:53:57;77187.53;;;-146.65;79.97
57094;BME280;42970;50.996;3.706;2023-01-28T05:56:23;77183.47;;;-146.65;80.32
57094;BME280;42970;50.996;3.706;2023-01-28T05:58:48;77195.59;;;-146.65;80.03
57094;BME280;42970;50.996;3.706;2023-01-28T06:01:13;77183.47;;;-146.65;80.21
57094;BME280;42970;50.996;3.706;2023-01-28T06:03:39;77187.53;;;-146.65;80.77
57094;BME280;42970;50.996;3.706;2023-01-28T06:06:04;77189.53;;;-146.65;80.84
57094;BME280;42970;50.996;3.706;2023-01-28T06:08:29;77191.56;;;-146.65;80.72
57094;BME280;42970;50.996;3.706;2023-01-28T06:10:54;77187.53;;;-146.65;81.39
57094;BME280;42970;50.996;3.706;2023-01-28T06:13:20;77183.47;;;-146.65;81.50
57094;BME280;42970;50.996;3.706;2023-01-28T06:15:47;77175.41;;;-146.65;81.58
57094;BME280;42970;50.996;3.706;2023-01-28T06:18:13;77175.41;;;-146.65;81.91
57094;BME280;42970;50.996;3.706;2023-01-28T06:20:40;77183.47;;;-146.65;82.21
57094;BME280;42970;50.996;3.706;2023-01-28T06:23:05;77179.44;;;-146.65;82.23
57094;BME280;42970;50.996;3.706;2023-01-28T06:25:31;77183.47;;;-146.65;82.53
57094;BME280;42970;50.996;3.706;2023-01-28T06:27:56;77183.47;;;-146.65;83.07
57094;BME280;42970;50.996;3.706;2023-01-28T06:30:21;77187.53;;;-146.65;82.72
57094;BME280;42970;50.996;3.706;2023-01-28T06:32:52;77183.47;;;-146.65;82.68
57094;BME280;42970;50.996;3.706;2023-01-28T06:35:17;77179.44;;;-146.65;82.82
57094;BME280;42970;50.996;3.706;2023-01-28T06:37:42;77193.56;;;-146.65;82.35
57094;BME280;42970;50.996;3.706;2023-01-28T06:40:09;77191.56;;;-146.65;82.54
57094;BME280;42970;50.996;3.706;2023-01-28T06:42:35;77189.53;;;-146.65;82.74
57094;BME280;42970;50.996;3.706;2023-01-28T06:45:00;77205.69;;;-146.65;82.59
57094;BME280;42970;50.996;3.706;2023-01-28T06:47:27;77207.69;;;-146.65;82.37
57094;BME280;42970;50.996;3.706;2023-01-28T06:49:53;77211.75;;;-146.65;82.25
57094;BME280;42970;50.996;3.706;2023-01-28T06:52:18;77215.78;;;-146.65;82.62
57094;BME280;42970;50.996;3.706;2023-01-28T06:54:43;77215.78;;;-146.65;83.28
57094;BME280;42970;50.996;3.706;2023-01-28T06:57:09;77217.78;;;-146.65;82.86
57094;BME280;42970;50.996;3.706;2023-01-28T06:59:34;77215.78;;;-146.65;83.16
57094;BME280;42970;50.996;3.706;2023-01-28T07:01:59;77223.84;;;-146.65;83.13
57094;BME280;42970;50.996;3.706;2023-01-28T07:04:24;77215.78;;;-146.65;83.00
57094;BME280;42970;50.996;3.706;2023-01-28T07:06:50;77223.84;;;-146.65;83.14
57094;BME280;42970;50.996;3.706;2023-01-28T07:09:15;77227.88;;;-146.65;83.73
57094;BME280;42970;50.996;3.706;2023-01-28T07:11:41;77211.75;;;-146.65;83.43
57094;BME280;42970;50.996;3.706;2023-01-28T07:14:06;77221.81;;;-146.65;83.45
57094;BME280;42970;50.996;3.706;2023-01-28T07:16:32;77211.75;;;-146.65;83.62
57094;BME280;42970;50.996;3.706;2023-01-28T07:18:57;77219.81;;;-146.65;83.35
57094;BME280;42970;50.996;3.706;2023-01-28T07:21:22;77219.81;;;-146.65;83.18
57094;BME280;42970;50.996;3.706;2023-01-28T07:23:47;77233.94;;;-146.65;82.58
57094;BME280;42970;50.996;3.706;2023-01-28T07:26:13;77235.94;;;-146.65;83.14
57094;BME280;42970;50.996;3.706;2023-01-28T07:28:39;77231.91;;;-146.65;82.64
57094;BME280;42970;50.996;3.706;2023-01-28T07:31:05;77248.06;;;-146.65;83.20
57094;BME280;42970;50.996;3.706;2023-01-28T07:33:30;77244.03;;;-146.65;83.23
57094;BME280;42970;50.996;3.706;2023-01-28T07:35:57;77242.00;;;-146.65;83.53
57094;BME280;42970;50.996;3.706;2023-01-28T07:38:23;77244.03;;;-146.65;83.64
57094;BME280;42970;50.996;3.706;2023-01-28T07:40:48;77233.94;;;-146.65;83.15
57094;BME280;42970;50.996;3.706;2023-01-28T07:43:16;77242.00;;;-146.65;82.80
57094;BME280;42970;50.996;3.706;2023-01-28T07:45:42;77248.06;;;-146.65;82.37
57094;BME280;42970;50.996;3.706;2023-01-28T07:48:08;77240.00;;;-146.65;82.51
57094;BME280;42970;50.996;3.706;2023-01-28T07:50:34;77240.00;;;-146.65;83.05
57094;BME280;42970;50.996;3.706;2023-01-28T07:53:04;77246.03;;;-146.65;82.78
57094;BME280;42970;50.996;3.706;2023-01-28T07:55:30;77252.09;;;-146.65;82.39
57094;BME280;42970;50.996;3.706;2023-01-28T07:57:58;77248.06;;;-146.65;82.87
57094;BME280;42970;50.996;3.706;2023-01-28T08:00:25;77258.16;;;-146.65;81.90
57094;BME280;42970;50.996;3.706;2023-01-28T08:02:55;77268.25;;;-146.65;81.85
57094;BME280;42970;50.996;3.706;2023-01-28T08:05:23;77256.13;;;-146.65;82.19
57094;BME280;42970;50.996;3.706;2023-01-28T08:07:51;77256.13;;;-146.65;82.14
57094;BME280;42970;50.996;3.706;2023-01-28T08:10:17;77258.16;;;-146.65;81.82
57094;BME280;42970;50.996;3.706;2023-01-28T08:12:51;77260.16;;;-146.65;81.67
57094;BME280;42970;50.996;3.706;2023-01-28T08:15:17;77272.28;;;-146.65;81.82
57094;BME280;42970;50.996;3.706;2023-01-28T08:17:43;77266.22;;;-146.65;81.98
57094;BME280;42970;50.996;3.706;2023-01-28T08:20:08;77252.09;;;-146.65;81.83
57094;BME280;42970;50.996;3.706;2023-01-28T08:22:34;77260.16;;;-146.65;81.94
57094;BME280;42970;50.996;3.706;2023-01-28T08:24:59;77272.28;;;-146.65;82.19
57094;BME280;42970;50.996;3.706;2023-01-28T08:27:27;77270.25;;;-146.65;82.02
57094;BME280;42970;50.996;3.706;2023-01-28T08:29:54;77286.41;;;-146.65;82.53
57094;BME280;42970;50.996;3.706;2023-01-28T08:32:20;77276.31;;;-146.65;82.57
57094;BME280;42970;50.996;3.706;2023-01-28T08:34:45;77262.19;;;-146.65;82.84
57094;BME280;42970;50.996;3.706;2023-01-28T08:37:10;77258.16;;;-146.65;82.29
57094;BME280;42970;50.996;3.706;2023-01-28T08:39:36;77262.19;;;-146.65;82.37
57094;BME280;42970;50.996;3.706;2023-01-28T08:42:01;77256.13;;;-146.65;82.84
57094;BME280;42970;50.996;3.706;2023-01-28T08:44:27;77252.09;;;-146.65;82.45
57094;BME280;42970;50.996;3.706;2023-01-28T08:46:52;77264.19;;;-146.65;82.23
57094;BME280;42970;50.996;3.706;2023-01-28T08:49:17;77264.19;;;-146.65;82.33
57094;BME280;42970;50.996;3.706;2023-01-28T08:51:43;77252.09;;;-146.65;82.16
57094;BME280;42970;50.996;3.706;2023-01-28T08:54:08;77260.16;;;-146.65;81.98
57094;BME280;42970;50.996;3.706;2023-01-28T08:56:33;77248.06;;;-146.65;82.14
57094;BME280;42970;50.996;3.706;2023-01-28T08:58:58;77256.13;;;-146.65;82.27
57094;BME280;42970;50.996;3.706;2023-01-28T09:01:24;77260.16;;;-146.65;82.34
57094;BME280;42970;50.996;3.706;2023-01-28T09:03:51;77235.94;;;-146.65;82.44
57094;BME280;42970;50.996;3.706;2023-01-28T09:06:16;77237.97;;;-146.65;81.24
57094;BME280;42970;50.996;3.706;2023-01-28T09:08:41;77242.00;;;-146.65;82.36
57094;BME280;42970;50.996;3.706;2023-01-28T09:11:09;77235.94;;;-146.65;81.25
57094;BME280;42970;50.996;3.706;2023-01-28T09:13:34;77227.88;;;-146.65;81.46
57094;BME280;42970;50.996;3.706;2023-01-28T09:15:59;77213.75;;;-146.65;81.38
57094;BME280;42970;50.996;3.706;2023-01-28T09:18:25;77195.59;;;-146.65;82.21
57094;BME280;42970;50.996;3.706;2023-01-28T09:20:50;77215.78;;;-146.65;81.37
57094;BME280;42970;50.996;3.706;2023-01-28T09:23:15;77201.66;;;-146.65;80.67
57094;BME280;42970;50.996;3.706;2023-01-28T09:25:41;77211.75;;;-146.65;80.03
57094;BME280;42970;50.996;3.706;2023-01-28T09:28:06;77235.94;;;-146.65;80.19
57094;BME280;42970;50.996;3.706;2023-01-28T09:30:31;77237.97;;;-146.65;79.96
57094;BME280;42970;50.996;3.706;2023-01-28T09:32:57;77254.13;;;-146.65;79.96
57094;BME280;42970;50.996;3.706;2023-01-28T09:35:22;77250.06;;;-146.65;79.84
57094;BME280;42970;50.996;3.706;2023-01-28T09:37:48;77258.16;;;-146.65;79.38
57094;BME280;42970;50.996;3.706;2023-01-28T09:40:16;77211.75;;;-146.65;79.20
57094;BME280;42970;50.996;3.706;2023-01-28T09:45:21;77167.34;;;-146.65;76.97
57094;BME280;42970;50.996;3.706;2023-01-28T09:47:50;77124.97;;;-146.65;76.44
57094;BME280;42970;50.996;3.706;2023-01-28T09:50:23;77078.56;;;-146.65;75.24
57094;BME280;42970;50.996;3.706;2023-01-28T09:52:53;77060.41;;;-146.65;72.96
57094;BME280;42970;50.996;3.706;2023-01-28T09:55:36;77024.06;;;-146.65;70.27
57094;BME280;42970;50.996;3.706;2023-01-28T09:58:13;76983.72;;;-146.65;67.63
57094;BME280;42970;50.996;3.706;2023-01-28T10:06:19;76977.66;;;-146.65;66.69
57094;BME280;42970;50.996;3.706;2023-01-28T10:11:38;77120.94;;;-146.65;68.49
57094;BME280;42970;50.996;3.706;2023-01-28T10:14:08;77088.66;;;-146.65;68.72
57094;BME280;42970;50.996;3.706;2023-01-28T10:16:38;77054.34;;;-146.65;68.62
57094;BME280;42970;50.996;3.706;2023-01-28T10:19:09;77050.31;;;-146.65;68.16
57094;BME280;42970;50.996;3.706;2023-01-28T10:21:46;77052.31;;;-146.65;68.64
57094;BME280;42970;50.996;3.706;2023-01-28T10:24:24;77092.69;;;-146.65;69.46
57094;BME280;42970;50.996;3.706;2023-01-28T10:26:51;77139.09;;;-146.65;70.96
57094;BME280;42970;50.996;3.706;2023-01-28T10:29:28;77116.91;;;-146.65;70.56
57094;BME280;42970;50.996;3.706;2023-01-28T10:32:12;77118.91;;;-146.65;71.41
57094;BME280;42970;50.996;3.706;2023-01-28T10:34:40;77110.84;;;-146.65;71.01
57094;BME280;42970;50.996;3.706;2023-01-28T10:37:08;77090.66;;;-146.65;70.96
57094;BME280;42970;50.996;3.706;2023-01-28T10:39:36;77114.88;;;-146.65;71.16
57094;BME280;42970;50.996;3.706;2023-01-28T10:42:07;77114.88;;;-146.65;72.39
57094;BME280;42970;50.996;3.706;2023-01-28T10:44:35;77124.97;;;-146.65;71.46
57094;BME280;42970;50.996;3.706;2023-01-28T10:47:13;77120.94;;;-146.65;72.76
57094;BME280;42970;50.996;3.706;2023-01-28T10:49:46;77133.03;;;-146.65;72.31
57094;BME280;42970;50.996;3.706;2023-01-28T10:52:14;77120.94;;;-146.65;72.13
57094;BME280;42970;50.996;3.706;2023-01-28T10:54:39;77133.03;;;-146.65;72.38
57094;BME280;42970;50.996;3.706;2023-01-28T10:57:07;77133.03;;;-146.65;72.92
57094;BME280;42970;50.996;3.706;2023-01-28T10:59:34;77112.84;;;-146.65;73.09
57094;BME280;42970;50.996;3.706;2023-01-28T11:04:45;77092.69;;;-146.65;72.49
57094;BME280;42970;50.996;3.706;2023-01-28T11:07:17;77114.88;;;-146.65;71.90
57094;BME280;42970;50.996;3.706;2023-01-28T11:09:46;77110.84;;;-146.65;71.87
57094;BME280;42970;50.996;3.706;2023-01-28T11:12:22;77102.78;;;-146.65;71.69
57094;BME280;42970;50.996;3.706;2023-01-28T11:14:48;77088.66;;;-146.65;72.15
57094;BME280;42970;50.996;3.706;2023-01-28T11:17:15;77092.69;;;-146.65;72.41
57094;BME280;42970;50.996;3.706;2023-01-28T11:19:40;77141.09;;;-146.65;72.78
57094;BME280;42970;50.996;3.706;2023-01-28T11:22:13;77147.16;;;-146.65;73.54
57094;BME280;42970;50.996;3.706;2023-01-28T11:24:45;77122.94;;;-146.65;73.51
57094;BME280;42970;50.996;3.706;2023-01-28T11:27:13;77096.72;;;-146.65;73.93
57094;BME280;42970;50.996;3.706;2023-01-28T11:29:39;77086.63;;;-146.65;72.95
57094;BME280;42970;50.996;3.706;2023-01-28T11:32:15;77110.84;;;-146.65;73.79
57094;BME280;42970;50.996;3.706;2023-01-28T11:34:40;77088.66;;;-146.65;74.25
57094;BME280;42970;50.996;3.706;2023-01-28T11:37:15;77110.84;;;-146.65;73.04
57094;BME280;42970;50.996;3.706;2023-01-28T11:39:40;77090.66;;;-146.65;72.76
57094;BME280;42970;50.996;3.706;2023-01-28T11:42:16;77064.44;;;-146.65;73.95
57094;BME280;42970;50.996;3.706;2023-01-28T11:44:42;77058.38;;;-146.65;73.26
57094;BME280;42970;50.996;3.706;2023-01-28T11:52:08;77026.09;;;-146.65;71.67
57094;BME280;42970;50.996;3.706;2023-01-28T11:59:37;76983.72;;;-146.65;69.15
57094;BME280;42970;50.996;3.706;2023-01-28T12:04:56;76925.22;;;-146.65;69.42
57094;BME280;42970;50.996;3.706;2023-01-28T12:07:44;76876.78;;;-146.65;67.71
57094;BME280;42970;50.996;3.706;2023-01-28T12:13:06;76818.28;;;-146.65;63.20
57094;BME280;42970;50.996;3.706;2023-01-28T12:21:04;76447.03;;;-146.65;52.19
57094;BME280;42970;50.996;3.706;2023-01-28T12:23:38;76368.34;;;-146.65;51.54
57094;BME280;42970;50.996;3.706;2023-01-28T12:41:14;76350.19;;;-146.65;46.46
57094;BME280;42970;50.996;3.706;2023-01-28T12:49:16;76241.25;;;-146.65;44.95
57094;BME280;42970;50.996;3.706;2023-01-28T12:51:24;76340.09;;;-146.65;45.75
57094;BME280;42970;50.996;3.706;2023-01-28T12:53:53;76307.81;;;-146.65;46.83
57094;BME280;42970;50.996;3.706;2023-01-28T12:56:24;76372.38;;;-146.65;46.94
57094;BME280;42970;50.996;3.706;2023-01-28T13:01:34;76509.56;;;-146.65;49.00
57094;BME280;42970;50.996;3.706;2023-01-28T13:04:05;76604.41;;;-146.65;51.55
57094;BME280;42970;50.996;3.706;2023-01-28T13:06:54;76636.69;;;-146.65;51.77
57094;BME280;42970;50.996;3.706;2023-01-28T13:09:19;76681.06;;;-146.65;52.96
57094;BME280;42970;50.996;3.706;2023-01-28T13:11:47;76836.44;;;-146.65;57.55
57094;BME280;42970;50.996;3.706;2023-01-28T13:14:14;76892.91;;;-146.65;60.04
57094;BME280;42970;50.996;3.706;2023-01-28T13:16:39;76923.19;;;-146.65;62.18
57094;BME280;42970;50.996;3.706;2023-01-28T13:21:42;76898.97;;;-146.65;62.84
57094;BME280;42970;50.996;3.706;2023-01-28T13:31:39;76929.25;;;-146.65;62.79
57094;BME280;42970;50.996;3.706;2023-01-28T13:34:05;76929.25;;;-146.65;63.30
57094;BME280;42970;50.996;3.706;2023-01-28T13:36:46;76939.34;;;-146.65;63.79
57094;BME280;42970;50.996;3.706;2023-01-28T13:49:33;76896.97;;;-146.65;64.66
57094;BME280;42970;50.996;3.706;2023-01-28T13:54:56;76876.78;;;-146.65;64.57
57094;BME280;42970;50.996;3.706;2023-01-28T13:57:35;76884.84;;;-146.65;63.67
57094;BME280;42970;50.996;3.706;2023-01-28T14:18:14;76838.44;;;-146.65;63.49
57094;BME280;42970;50.996;3.706;2023-01-28T14:20:44;76832.38;;;-146.65;63.89
57094;BME280;42970;50.996;3.706;2023-01-28T14:23:16;76905.03;;;-146.65;63.97
57094;BME280;42970;50.996;3.706;2023-01-28T14:28:08;76917.13;;;-146.65;62.38
57094;BME280;42970;50.996;3.706;2023-01-28T14:33:01;76933.28;;;-146.65;64.54
57094;BME280;42970;50.996;3.706;2023-01-28T14:35:30;76953.47;;;-146.65;64.17
57094;BME280;42970;50.996;3.706;2023-01-28T14:37:56;76953.47;;;-146.65;64.96
57094;BME280;42970;50.996;3.706;2023-01-28T14:40:23;76967.59;;;-146.65;65.29
57094;BME280;42970;50.996;3.706;2023-01-28T14:42:50;76973.63;;;-146.65;65.82
57094;BME280;42970;50.996;3.706;2023-01-28T14:53:09;76909.06;;;-146.65;65.91
57094;BME280;42970;50.996;3.706;2023-01-28T14:58:14;76907.03;;;-146.65;64.67
57094;BME280;42970;50.996;3.706;2023-01-28T15:00:51;76921.16;;;-146.65;65.89
57094;BME280;42970;50.996;3.706;2023-01-28T15:03:17;76935.28;;;-146.65;64.88